Time;durP1;ratioP1;P1;durP2;ratioP2;P2;SDS_P1;SDS_P2;PMS_P1;PMS_P2;Temp;Humidity;BMP_temperature;BMP_pressure;BME280_temperature;BME280_humidity;BME280_pressure;Samples;Min_cycle;Max_cycle;Signal;HPM_P1;HPM_P2
2021/03/08 00:01:16;;;;;;;3.30;1.30;;;;;;;0.31;53.00;101698.94;6120046;29;20197;-74
2021/03/08 00:04:27;;;;;;;2.73;1.00;;;;;;;0.12;53.22;101704.16;6118749;29;20238;-73
2021/03/08 00:07:31;;;;;;;4.90;1.10;;;;;;;0.17;54.13;101707.28;6118594;29;20190;-73
2021/03/08 00:10:35;;;;;;;1.93;0.97;;;;;;;0.29;52.84;101714.31;6119563;29;20192;-73
2021/03/08 00:13:38;;;;;;;2.60;1.17;;;;;;;0.31;52.36;101712.38;6118438;29;20475;-73
2021/03/08 00:16:41;;;;;;;2.97;1.40;;;;;;;0.35;52.01;101721.84;6118723;29;20190;-73
2021/03/08 00:19:44;;;;;;;3.20;1.20;;;;;;;0.36;51.51;101734.31;6118364;29;20500;-73
2021/03/08 00:22:49;;;;;;;1.07;1.07;;;;;;;0.49;51.58;101734.94;6118195;29;20381;-73
2021/03/08 00:25:52;;;;;;;0.80;0.80;;;;;;;0.59;51.27;101760.06;6118258;29;20200;-73
2021/03/08 00:28:55;;;;;;;1.20;1.07;;;;;;;0.50;51.80;101774.25;6119624;29;20191;-74
2021/03/08 00:31:59;;;;;;;0.87;0.87;;;;;;;0.10;62.30;101802.72;6118201;29;20191;-73
2021/03/08 00:35:04;;;;;;;2.80;1.10;;;;;;;-0.49;76.25;101795.03;6119233;29;20251;-73
2021/03/08 00:38:12;;;;;;;1.43;1.20;;;;;;;-0.69;79.02;101785.00;6117873;29;20212;-73
2021/03/08 00:41:15;;;;;;;6.00;1.20;;;;;;;-0.82;85.10;101781.59;6119103;29;20189;-74
2021/03/08 00:44:20;;;;;;;4.10;1.40;;;;;;;-0.56;85.10;101780.38;6119050;29;20198;-73
2021/03/08 00:47:23;;;;;;;1.27;1.20;;;;;;;-0.56;80.49;101777.69;6119091;29;20283;-74
2021/03/08 00:50:29;;;;;;;2.53;1.07;;;;;;;-0.59;79.59;101769.91;6117367;29;20370;-73
2021/03/08 00:53:34;;;;;;;3.70;1.47;;;;;;;-0.40;78.98;101771.97;6118079;29;20249;-73
2021/03/08 00:56:38;;;;;;;1.30;1.20;;;;;;;-0.39;76.59;101774.53;6117527;29;20212;-73
2021/03/08 00:59:41;;;;;;;1.00;1.00;;;;;;;-0.37;75.61;101783.31;6117365;29;20420;-72
2021/03/08 01:02:46;;;;;;;3.70;1.33;;;;;;;-0.27;74.09;101778.91;6116190;29;20230;-73
2021/03/08 01:05:55;;;;;;;1.57;1.00;;;;;;;-0.36;69.64;101784.16;6117702;29;20256;-73
2021/03/08 01:09:16;;;;;;;3.67;1.00;;;;;;;-0.09;68.46;101781.91;6117054;29;20237;-73
2021/03/08 01:12:20;;;;;;;1.60;1.20;;;;;;;-0.05;64.61;101775.28;6117425;29;20209;-72
2021/03/08 01:15:27;;;;;;;1.93;1.20;;;;;;;-0.09;61.71;101788.13;6117202;29;20239;-73
2021/03/08 01:18:31;;;;;;;1.53;1.10;;;;;;;-0.03;62.08;101782.25;6117234;29;20421;-73
2021/03/08 01:21:34;;;;;;;1.00;1.00;;;;;;;-0.14;57.71;101784.97;6118066;29;20196;-72
2021/03/08 01:24:39;;;;;;;1.10;1.10;;;;;;;-0.18;58.79;101782.66;6118066;29;20196;-73
2021/03/08 01:27:44;;;;;;;1.30;1.20;;;;;;;-0.03;57.68;101781.41;6117055;29;20387;-73
2021/03/08 01:30:47;;;;;;;1.63;1.20;;;;;;;-0.16;59.58;101786.94;6118030;29;20189;-73
2021/03/08 01:33:51;;;;;;;1.00;1.00;;;;;;;-0.10;60.36;101791.78;6117830;29;20196;-72
2021/03/08 01:36:55;;;;;;;1.27;1.27;;;;;;;-0.18;61.89;101791.53;6118176;29;20193;-73
2021/03/08 01:39:59;;;;;;;1.70;1.00;;;;;;;-0.34;63.65;101793.78;6118219;29;20215;-73
2021/03/08 01:43:07;;;;;;;1.40;1.40;;;;;;;-0.41;65.16;101797.91;6117213;29;20201;-73
2021/03/08 01:46:12;;;;;;;2.73;1.40;;;;;;;-0.33;65.72;101784.75;6116862;29;20509;-73
2021/03/08 01:49:15;;;;;;;1.90;1.30;;;;;;;-0.21;65.89;101789.13;6118101;29;20296;-73
2021/03/08 01:52:19;;;;;;;1.00;1.00;;;;;;;-0.19;66.02;101792.53;6116739;29;20443;-73
2021/03/08 01:55:24;;;;;;;1.70;1.37;;;;;;;-0.20;66.42;101793.50;6117898;29;20237;-73
2021/03/08 01:58:27;;;;;;;2.10;2.00;;;;;;;-0.32;65.78;101807.06;6117685;29;20198;-72
2021/03/08 02:01:51;;;;;;;5.40;1.43;;;;;;;-0.35;65.82;101812.66;6117576;29;20496;-73
2021/03/08 02:04:55;;;;;;;2.47;1.23;;;;;;;-0.37;65.06;101826.22;6120287;29;20217;-74
2021/03/08 02:07:59;;;;;;;1.57;1.10;;;;;;;-0.35;65.24;101808.16;6120976;29;20522;-74
2021/03/08 02:11:04;;;;;;;1.90;1.40;;;;;;;-0.25;66.09;101835.06;6120193;29;20204;-74
2021/03/08 02:14:26;;;;;;;2.47;1.10;;;;;;;-0.33;65.89;101819.59;6120943;29;20421;-74
2021/03/08 02:17:37;;;;;;;2.03;1.10;;;;;;;-0.31;66.38;101819.50;6122347;29;20190;-73
2021/03/08 02:20:48;;;;;;;1.30;1.20;;;;;;;-0.33;66.61;101830.34;6120255;29;20205;-74
2021/03/08 02:24:33;;;;;;;3.90;1.43;;;;;;;-0.40;67.82;101847.03;6122206;29;20193;-73
2021/03/08 02:28:00;;;;;;;1.30;1.30;;;;;;;-0.41;68.54;101846.19;6053371;29;20519;-74
2021/03/08 02:31:21;;;;;;;1.57;1.47;;;;;;;-0.66;74.45;101858.00;6120728;29;20478;-74
2021/03/08 02:34:29;;;;;;;1.30;1.30;;;;;;;-0.73;77.93;101866.63;6121894;29;20251;-73
2021/03/08 02:37:40;;;;;;;1.33;1.30;;;;;;;-0.91;79.19;101868.06;6104725;29;20208;-73
2021/03/08 02:40:48;;;;;;;1.37;1.27;;;;;;;-0.92;81.02;101866.34;6120514;29;20192;-72
2021/03/08 02:43:57;;;;;;;1.43;1.13;;;;;;;-0.96;81.66;101871.09;6120473;29;20466;-74
2021/03/08 02:47:02;;;;;;;4.17;1.40;;;;;;;-0.93;80.67;101880.72;6120792;29;20224;-73
2021/03/08 02:50:07;;;;;;;3.53;1.30;;;;;;;-0.98;79.80;101872.19;6121094;29;20253;-72
2021/03/08 02:53:17;;;;;;;1.50;1.40;;;;;;;-0.99;79.86;101881.19;6120075;29;20190;-73
2021/03/08 02:56:24;;;;;;;2.57;1.30;;;;;;;-0.91;79.27;101885.00;6121458;29;20247;-72
2021/03/08 02:59:33;;;;;;;1.20;1.20;;;;;;;-0.94;77.98;101887.91;6121050;29;20247;-72
2021/03/08 03:02:39;;;;;;;1.83;1.40;;;;;;;-0.75;77.38;101895.38;6119859;29;20268;-72
2021/03/08 03:05:44;;;;;;;1.23;1.17;;;;;;;-0.73;75.53;101888.06;6120920;29;20196;-73
2021/03/08 03:08:47;;;;;;;1.20;1.20;;;;;;;-0.78;75.94;101892.94;6120775;29;20189;-73
2021/03/08 03:11:54;;;;;;;3.07;1.47;;;;;;;-0.84;75.31;101896.94;6119792;29;20224;-72
2021/03/08 03:14:58;;;;;;;4.10;1.23;;;;;;;-0.73;75.29;101896.13;6120558;29;20221;-72
2021/03/08 03:18:04;;;;;;;1.30;1.20;;;;;;;-0.66;74.72;101910.75;6121130;29;20199;-73
2021/03/08 03:21:11;;;;;;;1.90;1.23;;;;;;;-0.70;76.44;101904.78;6119529;29;20555;-73
2021/03/08 03:24:14;;;;;;;1.83;1.30;;;;;;;-0.77;76.69;101908.06;6120788;29;20231;-73
2021/03/08 03:27:18;;;;;;;2.00;1.33;;;;;;;-0.77;76.17;101910.75;6119430;29;20421;-73
2021/03/08 03:30:24;;;;;;;1.20;1.10;;;;;;;-0.62;76.86;101912.22;6119315;29;20250;-73
2021/03/08 03:33:31;;;;;;;4.63;1.30;;;;;;;-0.56;75.63;101927.81;6120586;29;20190;-73
2021/03/08 03:36:38;;;;;;;2.67;1.20;;;;;;;-0.72;77.33;101927.31;6120248;29;20217;-73
2021/03/08 03:39:41;;;;;;;3.93;1.50;;;;;;;-0.70;78.48;101923.53;6120159;29;20189;-72
2021/03/08 03:42:45;;;;;;;2.07;1.47;;;;;;;-0.78;78.34;101927.78;6120528;29;20198;-73
2021/03/08 03:45:48;;;;;;;1.07;1.07;;;;;;;-0.58;78.12;101929.78;6120459;29;20235;-73
2021/03/08 03:48:53;;;;;;;1.20;1.20;;;;;;;-0.48;79.20;101930.75;6118967;29;20195;-73
2021/03/08 03:51:57;;;;;;;1.17;1.17;;;;;;;-0.65;79.37;101941.94;6120286;29;20224;-73
2021/03/08 03:55:00;;;;;;;3.40;1.40;;;;;;;-0.72;80.78;101943.41;6120141;29;20231;-73
2021/03/08 03:58:09;;;;;;;1.73;1.63;;;;;;;-0.66;80.38;101921.47;6118868;29;20480;-73
2021/03/08 04:01:18;;;;;;;1.87;1.77;;;;;;;-0.86;80.27;101946.25;6118721;29;20190;-73
2021/03/08 04:04:29;;;;;;;1.27;1.27;;;;;;;-0.77;79.80;101945.56;6119771;29;20313;-73
2021/03/08 04:07:38;;;;;;;5.97;1.53;;;;;;;-0.76;80.41;101947.25;6119744;29;20239;-73
2021/03/08 04:10:43;;;;;;;1.47;1.37;;;;;;;-0.70;79.10;101952.16;6119449;29;20222;-73
2021/03/08 04:13:46;;;;;;;1.50;1.37;;;;;;;-0.58;78.19;101950.34;6119364;29;20270;-73
2021/03/08 04:16:53;;;;;;;1.53;1.27;;;;;;;-0.52;77.32;101947.22;6119680;29;20300;-72
2021/03/08 04:20:00;;;;;;;3.37;1.20;;;;;;;-0.70;76.56;101945.00;6119488;29;20195;-73
2021/03/08 04:23:06;;;;;;;1.20;1.20;;;;;;;-0.65;76.27;101960.72;6119198;29;20196;-72
2021/03/08 04:26:17;;;;;;;2.37;1.20;;;;;;;-0.59;75.33;101970.94;6118597;29;20259;-73
2021/03/08 04:29:20;;;;;;;1.47;1.37;;;;;;;-0.61;74.94;101986.28;6119284;29;20216;-72
2021/03/08 04:32:24;;;;;;;2.10;1.40;;;;;;;-0.65;74.93;101987.50;6118929;29;20196;-73
2021/03/08 04:35:30;;;;;;;1.20;1.20;;;;;;;-0.68;74.40;101990.41;6119300;29;20216;-73
2021/03/08 04:38:35;;;;;;;1.40;1.40;;;;;;;-0.65;74.82;101993.72;6117979;29;20291;-73
2021/03/08 04:41:38;;;;;;;1.60;1.50;;;;;;;-0.64;73.83;102000.78;6119249;29;20216;-72
2021/03/08 04:44:44;;;;;;;1.50;1.30;;;;;;;-0.78;72.79;101998.31;6118547;29;20252;-72
2021/03/08 04:47:48;;;;;;;4.30;1.40;;;;;;;-0.82;73.91;102004.84;6118921;29;20190;-72
2021/03/08 04:50:53;;;;;;;2.17;1.20;;;;;;;-0.76;72.67;102006.22;6118625;29;20257;-71
2021/03/08 04:53:57;;;;;;;1.10;1.10;;;;;;;-0.59;71.61;102008.47;6118259;29;20229;-72
2021/03/08 04:57:12;;;;;;;2.13;1.40;;;;;;;-0.45;70.26;102016.31;6117678;29;20253;-72
2021/03/08 05:00:16;;;;;;;1.50;1.50;;;;;;;-0.53;70.28;102002.66;6117389;29;20389;-73
2021/03/08 05:03:22;;;;;;;1.20;1.20;;;;;;;-0.35;70.34;102017.31;6117934;29;20504;-72
2021/03/08 05:06:28;;;;;;;6.57;1.37;;;;;;;-0.66;69.12;102018.81;6117329;29;20216;-73
2021/03/08 05:09:32;;;;;;;2.20;1.50;;;;;;;-0.55;68.82;102025.19;6118085;29;20253;-72
2021/03/08 05:12:38;;;;;;;1.30;1.30;;;;;;;-0.53;67.13;102021.41;6117325;29;20463;-71
2021/03/08 05:15:42;;;;;;;2.00;1.50;;;;;;;-0.43;66.19;102030.47;6117156;29;20583;-72
2021/03/08 05:18:46;;;;;;;1.20;1.20;;;;;;;-0.48;66.49;102035.31;6118536;29;20264;-73
2021/03/08 05:21:52;;;;;;;2.17;1.23;;;;;;;-0.56;65.85;102031.50;6117033;29;20192;-73
2021/03/08 05:24:55;;;;;;;1.27;1.27;;;;;;;-0.39;65.83;102036.44;6117314;29;20408;-73
2021/03/08 05:28:00;;;;;;;3.07;1.20;;;;;;;-0.56;64.42;102029.69;6117923;29;20196;-73
2021/03/08 05:31:05;;;;;;;2.50;1.43;;;;;;;-0.57;64.94;102038.72;6118271;29;20189;-73
2021/03/08 05:34:15;;;;;;;2.87;1.63;;;;;;;-0.79;63.51;102049.31;6118045;29;20192;-73
2021/03/08 05:37:20;;;;;;;1.57;1.47;;;;;;;-0.83;64.13;102054.06;6119168;29;20217;-72
2021/03/08 05:40:29;;;;;;;4.40;1.63;;;;;;;-0.80;63.13;102063.72;6121689;29;20420;-75
2021/03/08 05:43:36;;;;;;;4.37;1.77;;;;;;;-0.72;63.47;102061.31;6121833;29;20191;-73
2021/03/08 05:46:59;;;;;;;3.83;1.67;;;;;;;-0.63;62.42;102071.34;6121606;29;20240;-73
2021/03/08 05:50:53;;;;;;;1.20;1.10;;;;;;;-0.78;61.96;102067.13;6122720;29;20199;-73
2021/03/08 05:54:20;;;;;;;4.20;1.80;;;;;;;-0.74;62.84;102069.44;6091997;29;20491;-72
2021/03/08 05:57:41;;;;;;;4.93;1.40;;;;;;;-0.79;61.01;102076.13;6122628;29;20280;-72
2021/03/08 06:00:55;;;;;;;1.80;1.53;;;;;;;-0.83;61.47;102075.50;6121304;29;20238;-73
2021/03/08 06:04:32;;;;;;;3.23;1.57;;;;;;;-0.95;60.79;102075.56;6122750;29;20280;-73
2021/03/08 06:08:10;;;;;;;1.40;1.30;;;;;;;-0.77;60.45;102090.28;6121725;29;20201;-73
2021/03/08 06:11:15;;;;;;;4.33;1.53;;;;;;;-0.62;59.94;102083.78;6095121;29;20397;-73
2021/03/08 06:14:26;;;;;;;3.10;1.77;;;;;;;-0.55;59.57;102087.69;6120701;29;20213;-73
2021/03/08 06:17:31;;;;;;;2.07;1.50;;;;;;;-0.75;60.33;102094.56;6122196;29;20213;-72
2021/03/08 06:20:35;;;;;;;1.40;1.40;;;;;;;-0.63;59.41;102092.78;6120804;29;20379;-73
2021/03/08 06:23:41;;;;;;;1.93;1.27;;;;;;;-0.85;59.10;102098.03;6120750;29;20193;-73
2021/03/08 06:26:46;;;;;;;8.73;1.60;;;;;;;-0.71;58.80;102095.16;6121562;29;20197;-72
2021/03/08 06:29:51;;;;;;;3.10;1.50;;;;;;;-0.76;58.52;102097.34;6120679;29;20464;-73
2021/03/08 06:32:55;;;;;;;2.57;1.33;;;;;;;-0.82;58.61;102098.63;6121420;29;20192;-72
2021/03/08 06:36:00;;;;;;;3.80;1.40;;;;;;;-0.81;59.30;102111.09;6120282;29;20275;-73
2021/03/08 06:39:05;;;;;;;7.47;1.70;;;;;;;-0.63;59.23;102108.88;6121328;29;20229;-74
2021/03/08 06:42:12;;;;;;;2.40;1.57;;;;;;;-0.65;58.88;102116.16;6121149;29;20190;-73
2021/03/08 06:45:16;;;;;;;9.17;1.63;;;;;;;-0.78;58.64;102115.34;6121401;29;20189;-74
2021/03/08 06:48:19;;;;;;;5.03;1.50;;;;;;;-0.66;58.10;102109.09;6120082;29;20472;-74
2021/03/08 06:51:22;;;;;;;11.00;1.73;;;;;;;-0.87;58.89;102121.38;6121278;29;20189;-73
2021/03/08 06:54:27;;;;;;;1.70;1.60;;;;;;;-0.79;58.62;102130.56;6120949;29;20190;-73
2021/03/08 06:57:35;;;;;;;3.27;1.67;;;;;;;-0.91;58.26;102135.97;6120866;29;20223;-72
2021/03/08 07:00:38;;;;;;;4.87;1.50;;;;;;;-0.65;58.39;102137.59;6119601;29;20584;-72
2021/03/08 07:03:54;;;;;;;5.43;1.53;;;;;;;-0.89;58.64;102150.13;6120602;29;20237;-73
2021/03/08 07:06:58;;;;;;;5.50;1.90;;;;;;;-0.61;58.31;102141.75;6120648;29;20196;-72
2021/03/08 07:10:02;;;;;;;8.27;1.90;;;;;;;-0.75;58.86;102147.31;6120485;29;20195;-73
2021/03/08 07:13:09;;;;;;;6.23;2.03;;;;;;;-0.53;58.07;102147.41;6119536;29;20192;-73
2021/03/08 07:16:13;;;;;;;1.63;1.50;;;;;;;-0.62;58.60;102142.75;6119961;29;20291;-73
2021/03/08 07:19:16;;;;;;;12.03;1.90;;;;;;;-0.65;58.27;102159.06;6120546;29;20257;-74
2021/03/08 07:22:36;;;;;;;3.80;1.40;;;;;;;-0.49;58.98;102165.00;6119565;29;20252;-74
2021/03/08 07:25:40;;;;;;;5.30;1.43;;;;;;;-0.36;58.09;102162.25;6120302;29;20216;-73
2021/03/08 07:28:45;;;;;;;6.07;1.40;;;;;;;-0.56;57.88;102165.53;6120266;29;20220;-73
2021/03/08 07:31:49;;;;;;;1.53;1.43;;;;;;;-0.39;57.50;102166.03;6119285;29;20474;-73
2021/03/08 07:35:13;;;;;;;5.63;1.50;;;;;;;-0.47;57.22;102173.78;6120044;29;20190;-73
2021/03/08 07:38:29;;;;;;;3.63;1.33;;;;;;;-0.35;57.61;102167.50;6120427;29;20285;-74
2021/03/08 07:41:32;;;;;;;2.70;1.73;;;;;;;-0.53;57.52;102168.84;6119985;29;20191;-74
2021/03/08 07:44:47;;;;;;;2.43;1.60;;;;;;;-0.46;57.37;102178.16;6118849;29;20190;-73
2021/03/08 07:48:07;;;;;;;3.90;1.50;;;;;;;-0.46;58.08;102175.47;6119680;29;20198;-73
2021/03/08 07:51:12;;;;;;;4.63;1.53;;;;;;;-0.53;57.43;102174.22;6119970;29;20229;-73
2021/03/08 07:54:16;;;;;;;2.63;1.70;;;;;;;-0.66;57.59;102178.78;6119826;29;20268;-73
2021/03/08 07:57:20;;;;;;;4.77;1.70;;;;;;;-0.62;58.02;102172.25;6118368;29;20270;-73
2021/03/08 08:00:24;;;;;;;3.90;1.70;;;;;;;-0.61;57.96;102187.34;6116451;29;20372;-73
2021/03/08 08:03:29;;;;;;;1.90;1.33;;;;;;;-0.56;58.53;102184.31;6118608;29;20241;-73
2021/03/08 08:06:33;;;;;;;3.10;1.47;;;;;;;-0.55;58.28;102197.63;6118363;29;20203;-73
2021/03/08 08:09:39;;;;;;;4.20;1.40;;;;;;;-0.63;58.23;102200.88;6118279;29;20379;-73
2021/03/08 08:12:46;;;;;;;2.60;1.50;;;;;;;-0.35;57.84;102196.13;6118201;29;20196;-73
2021/03/08 08:15:51;;;;;;;8.60;1.70;;;;;;;-0.44;58.46;102203.06;6118526;29;20220;-72
2021/03/08 08:19:01;;;;;;;1.47;1.37;;;;;;;-0.40;57.40;102201.84;6116814;29;20286;-74
2021/03/08 08:22:05;;;;;;;6.87;1.80;;;;;;;-0.48;57.51;102209.59;6119367;29;20190;-73
2021/03/08 08:25:15;;;;;;;4.37;1.43;;;;;;;-0.36;58.85;102208.69;6118793;29;20194;-73
2021/03/08 08:28:22;;;;;;;1.17;1.17;;;;;;;-0.40;58.36;102207.22;6119125;29;20204;-73
2021/03/08 08:31:27;;;;;;;3.13;1.53;;;;;;;-0.41;58.81;102208.16;6119069;29;20190;-73
2021/03/08 08:34:37;;;;;;;1.47;1.30;;;;;;;-0.37;58.46;102206.13;6118012;29;20288;-72
2021/03/08 08:38:20;;;;;;;1.27;1.27;;;;;;;-0.15;58.84;102212.47;6118568;29;20224;-73
2021/03/08 08:41:28;;;;;;;7.53;1.60;;;;;;;-0.10;58.14;102214.78;6118050;29;20191;-72
2021/03/08 08:44:32;;;;;;;1.60;1.50;;;;;;;-0.03;58.68;102214.22;6118895;29;20223;-73
2021/03/08 08:47:37;;;;;;;2.03;1.67;;;;;;;-0.01;58.07;102214.97;6120097;29;20200;-73
2021/03/08 08:50:49;;;;;;;4.50;1.43;;;;;;;-0.15;58.11;102219.63;6117341;29;20214;-73
2021/03/08 08:53:52;;;;;;;4.40;1.17;;;;;;;-0.29;57.73;102191.19;6118839;29;20198;-73
2021/03/08 08:56:58;;;;;;;1.30;1.30;;;;;;;-0.13;57.58;102210.50;6118407;29;20241;-73
2021/03/08 09:00:16;;;;;;;3.90;1.43;;;;;;;-0.08;58.63;102216.38;6118503;29;20260;-74
2021/03/08 09:03:54;;;;;;;6.37;1.70;;;;;;;-0.03;57.51;102216.06;6118406;29;20248;-74
2021/03/08 09:07:00;;;;;;;2.50;1.70;;;;;;;0.10;57.92;102216.00;6118483;29;20195;-73
2021/03/08 09:10:04;;;;;;;4.30;1.50;;;;;;;-0.04;58.07;102219.69;6118152;29;20189;-73
2021/03/08 09:13:13;;;;;;;3.37;1.57;;;;;;;-0.02;57.52;102232.03;6117043;29;20472;-73
2021/03/08 09:16:42;;;;;;;1.70;1.60;;;;;;;0.08;57.02;102237.56;6118400;29;20220;-73
2021/03/08 09:19:50;;;;;;;3.77;1.57;;;;;;;0.03;57.63;102225.47;6118279;29;20255;-74
2021/03/08 09:22:55;;;;;;;1.33;1.27;;;;;;;0.08;56.19;102229.50;6117059;29;20496;-74
2021/03/08 09:26:00;;;;;;;4.03;1.50;;;;;;;0.07;56.23;102233.19;6118174;29;20235;-74
2021/03/08 09:29:04;;;;;;;2.93;1.47;;;;;;;0.10;56.77;102242.81;6117283;29;20190;-73
2021/03/08 09:32:10;;;;;;;2.50;1.40;;;;;;;0.23;55.47;102232.88;6118187;29;20191;-74
2021/03/08 09:35:15;;;;;;;5.80;1.60;;;;;;;0.18;56.56;102235.06;6117805;29;20239;-74
2021/03/08 09:38:19;;;;;;;1.20;1.20;;;;;;;0.11;56.07;102223.03;6116641;29;20407;-74
2021/03/08 09:41:28;;;;;;;2.17;1.37;;;;;;;0.22;55.62;102236.53;6116770;29;20221;-74
2021/03/08 09:44:39;;;;;;;2.93;1.60;;;;;;;0.32;55.26;102243.75;6117247;29;20511;-73
2021/03/08 09:47:43;;;;;;;1.77;1.40;;;;;;;0.31;55.06;102235.84;6119706;29;20233;-74
2021/03/08 09:51:09;;;;;;;5.80;1.37;;;;;;;0.29;54.84;102244.00;6117414;29;20270;-73
2021/03/08 09:54:13;;;;;;;3.93;1.63;;;;;;;0.38;54.57;102242.44;6117461;29;20341;-74
2021/03/08 09:57:30;;;;;;;1.70;1.60;;;;;;;0.40;53.70;102245.84;6117305;29;20247;-74
2021/03/08 10:00:34;;;;;;;3.50;2.40;;;;;;;0.38;54.32;102248.69;6117815;29;20258;-74
2021/03/08 10:03:47;;;;;;;4.53;1.87;;;;;;;0.48;53.31;102251.50;6116804;29;20242;-74
2021/03/08 10:06:52;;;;;;;2.63;1.70;;;;;;;0.55;53.31;102250.91;6117444;29;20231;-75
2021/03/08 10:10:10;;;;;;;3.30;1.60;;;;;;;0.47;53.96;102241.72;6117077;29;20238;-73
2021/03/08 10:13:13;;;;;;;1.77;1.27;;;;;;;0.31;52.50;102231.31;6116419;29;20192;-74
2021/03/08 10:16:21;;;;;;;2.97;1.20;;;;;;;0.60;52.68;102258.59;6116314;29;20379;-74
2021/03/08 10:19:24;;;;;;;2.40;2.03;;;;;;;0.53;51.93;102262.75;6117601;29;20198;-74
2021/03/08 10:22:35;;;;;;;3.40;1.77;;;;;;;0.64;51.92;102265.47;6117200;29;20191;-74
2021/03/08 10:25:39;;;;;;;7.00;1.70;;;;;;;0.70;50.94;102264.97;6120984;29;20190;-73
2021/03/08 10:28:44;;;;;;;1.27;1.17;;;;;;;0.74;50.27;102261.09;6121557;29;20401;-74
2021/03/08 10:31:51;;;;;;;6.27;1.27;;;;;;;0.90;50.92;102261.59;6121700;29;20213;-73
2021/03/08 10:34:55;;;;;;;2.10;1.30;;;;;;;0.86;49.56;102249.38;6121423;29;20192;-73
2021/03/08 10:38:01;;;;;;;1.20;1.10;;;;;;;0.75;49.69;102252.03;6121490;29;20226;-74
2021/03/08 10:41:06;;;;;;;1.40;1.30;;;;;;;0.89;48.50;102259.91;6120327;29;20371;-74
2021/03/08 10:44:20;;;;;;;5.10;1.80;;;;;;;0.99;49.00;102255.50;6120329;29;20382;-74
2021/03/08 10:47:23;;;;;;;1.20;1.20;;;;;;;0.98;49.10;102256.47;6120318;29;20371;-73
2021/03/08 10:50:41;;;;;;;4.90;1.53;;;;;;;1.06;49.36;102255.88;6121415;29;20223;-73
2021/03/08 10:53:59;;;;;;;4.40;1.67;;;;;;;1.14;50.06;102254.28;6121392;29;20203;-73
2021/03/08 10:57:07;;;;;;;4.90;1.63;;;;;;;1.18;51.08;102239.63;6121232;29;20219;-74
2021/03/08 11:00:20;;;;;;;6.17;1.60;;;;;;;1.22;49.59;102270.66;6121003;29;20227;-74
2021/03/08 11:03:34;;;;;;;2.47;1.30;;;;;;;1.11;49.63;102259.03;6120877;29;20270;-73
2021/03/08 11:06:44;;;;;;;1.33;1.07;;;;;;;1.10;49.29;102252.84;6121335;29;20192;-74
2021/03/08 11:09:49;;;;;;;2.67;1.50;;;;;;;1.14;48.75;102256.13;6120194;29;20479;-74
2021/03/08 11:12:59;;;;;;;3.33;1.50;;;;;;;1.27;49.23;102265.78;6121037;29;20263;-73
2021/03/08 11:16:07;;;;;;;1.10;1.10;;;;;;;1.30;48.91;102253.91;6120139;29;20223;-74
2021/03/08 11:19:15;;;;;;;4.40;1.47;;;;;;;1.31;48.50;102254.78;6119400;29;20231;-73
2021/03/08 11:22:21;;;;;;;14.60;1.77;;;;;;;1.38;47.78;102266.75;6120445;29;20203;-74
2021/03/08 11:25:36;;;;;;;4.57;1.50;;;;;;;1.35;46.39;102261.63;6120315;29;20231;-74
2021/03/08 11:28:42;;;;;;;8.70;1.60;;;;;;;1.36;47.40;102225.69;6120130;29;20199;-74
2021/03/08 11:31:53;;;;;;;1.40;1.30;;;;;;;1.52;46.05;102258.41;6119380;29;20393;-74
2021/03/08 11:34:56;;;;;;;1.40;1.40;;;;;;;1.44;45.93;102256.34;6118006;29;20192;-74
2021/03/08 11:38:03;;;;;;;1.20;1.10;;;;;;;1.49;45.15;102264.06;6119512;29;20518;-74
2021/03/08 11:41:09;;;;;;;1.60;1.50;;;;;;;1.50;44.75;102263.06;6119360;29;20198;-74
2021/03/08 11:44:12;;;;;;;2.07;1.40;;;;;;;1.63;45.63;102250.34;6120144;29;20231;-73
2021/03/08 11:47:16;;;;;;;4.20;1.40;;;;;;;1.68;45.27;102253.50;6119914;29;20196;-74
2021/03/08 11:50:20;;;;;;;3.23;1.30;;;;;;;1.74;45.57;102236.88;6118744;29;20381;-74
2021/03/08 11:53:23;;;;;;;1.47;1.33;;;;;;;1.84;44.06;102248.56;6119849;29;20260;-73
2021/03/08 11:56:27;;;;;;;2.53;2.03;;;;;;;1.90;42.01;102248.06;6119635;29;20272;-73
2021/03/08 11:59:30;;;;;;;2.13;1.23;;;;;;;1.86;42.96;102258.25;6119169;29;20230;-74
2021/03/08 12:02:33;;;;;;;1.50;1.30;;;;;;;1.92;42.69;102250.63;6118241;29;20240;-74
2021/03/08 12:05:37;;;;;;;1.40;1.30;;;;;;;1.73;41.61;102235.13;6118855;29;20192;-73
2021/03/08 12:09:01;;;;;;;2.47;1.40;;;;;;;1.79;41.84;102245.41;6117795;29;20291;-73
2021/03/08 12:12:08;;;;;;;2.43;1.60;;;;;;;1.83;43.29;102236.09;6118420;29;20193;-74
2021/03/08 12:15:12;;;;;;;1.30;1.27;;;;;;;1.85;42.75;102228.75;6119777;29;20232;-72
2021/03/08 12:18:17;;;;;;;4.33;1.50;;;;;;;1.92;42.99;102221.88;6119207;29;20219;-73
2021/03/08 12:21:21;;;;;;;3.80;1.20;;;;;;;1.94;42.83;102236.06;6118899;29;20239;-73
2021/03/08 12:24:24;;;;;;;4.40;1.50;;;;;;;1.96;41.63;102226.03;6118673;29;20298;-73
2021/03/08 12:27:28;;;;;;;3.63;1.53;;;;;;;1.98;41.92;102224.03;6118944;29;20220;-72
2021/03/08 12:30:32;;;;;;;6.77;1.57;;;;;;;2.05;42.58;102222.56;6119079;29;20192;-72
2021/03/08 12:33:37;;;;;;;4.00;1.77;;;;;;;2.10;41.02;102225.72;6118149;29;20231;-72
2021/03/08 12:36:40;;;;;;;1.27;1.20;;;;;;;1.99;40.89;102233.84;6117609;29;20477;-73
2021/03/08 12:39:44;;;;;;;5.43;1.37;;;;;;;1.81;40.06;102232.69;6118460;29;20220;-73
2021/03/08 12:42:48;;;;;;;1.37;1.20;;;;;;;1.92;41.94;102213.81;6118951;29;20230;-73
2021/03/08 12:45:54;;;;;;;6.00;1.70;;;;;;;2.05;40.70;102217.19;6117871;29;20232;-73
2021/03/08 12:48:58;;;;;;;5.23;1.83;;;;;;;2.11;40.44;102218.50;6118538;29;20196;-73
2021/03/08 12:52:01;;;;;;;1.50;1.50;;;;;;;2.24;42.25;102214.63;6117818;29;20248;-73
2021/03/08 12:55:05;;;;;;;7.70;1.50;;;;;;;2.13;39.95;102217.38;6118472;29;20201;-75
2021/03/08 12:58:10;;;;;;;11.13;1.40;;;;;;;2.15;39.64;102214.56;6117288;29;20242;-73
2021/03/08 13:01:13;;;;;;;3.90;1.57;;;;;;;2.11;40.36;102224.72;6118121;29;20192;-72
2021/03/08 13:04:17;;;;;;;3.17;1.60;;;;;;;2.11;39.00;102238.19;6117103;29;20243;-74
2021/03/08 13:07:21;;;;;;;6.03;1.20;;;;;;;2.05;37.74;102211.81;6118373;29;20261;-73
2021/03/08 13:10:24;;;;;;;1.70;1.30;;;;;;;2.14;38.93;102200.25;6118066;29;20200;-74
2021/03/08 13:13:37;;;;;;;4.67;1.00;;;;;;;2.16;38.96;102211.72;6117915;29;20189;-73
2021/03/08 13:16:40;;;;;;;1.10;1.10;;;;;;;2.23;37.84;102212.94;6117967;29;20195;-73
2021/03/08 13:19:44;;;;;;;5.20;1.20;;;;;;;2.29;37.87;102195.38;6117026;29;20217;-74
2021/03/08 13:22:47;;;;;;;7.40;1.30;;;;;;;2.30;36.47;102203.34;6118197;29;20196;-73
2021/03/08 13:25:52;;;;;;;1.10;1.00;;;;;;;2.37;37.10;102198.28;6117881;29;20201;-72
2021/03/08 13:28:56;;;;;;;2.63;1.13;;;;;;;2.31;36.56;102194.28;6117708;29;20195;-72
2021/03/08 13:32:00;;;;;;;3.33;1.57;;;;;;;2.31;36.73;102193.44;6117787;29;20250;-72
2021/03/08 13:35:06;;;;;;;3.20;1.30;;;;;;;2.32;38.23;102206.78;6117744;29;20196;-73
2021/03/08 13:38:09;;;;;;;8.97;1.57;;;;;;;2.18;38.03;102193.63;6116749;29;20217;-72
2021/03/08 13:41:12;;;;;;;2.67;1.30;;;;;;;2.29;38.02;102196.25;6117833;29;20274;-73
2021/03/08 13:44:16;;;;;;;6.93;1.23;;;;;;;2.44;38.43;102189.53;6117883;29;20195;-72
2021/03/08 13:47:19;;;;;;;11.03;1.83;;;;;;;2.56;38.73;102194.88;6117953;29;20196;-74
2021/03/08 13:50:23;;;;;;;3.57;1.33;;;;;;;2.51;37.74;102190.75;6117442;29;20199;-73
2021/03/08 13:53:27;;;;;;;7.00;1.20;;;;;;;2.72;38.44;102187.19;6117727;29;20196;-73
2021/03/08 13:56:31;;;;;;;5.70;1.20;;;;;;;2.62;38.64;102192.50;6117215;29;20197;-74
2021/03/08 13:59:35;;;;;;;5.87;1.30;;;;;;;2.57;38.03;102196.59;6120941;29;20217;-73
2021/03/08 14:02:39;;;;;;;2.30;1.23;;;;;;;2.64;38.12;102200.47;6118800;29;20303;-73
2021/03/08 14:05:43;;;;;;;18.60;1.87;;;;;;;2.70;37.33;102194.50;6122464;29;20245;-73
2021/03/08 14:08:47;;;;;;;4.20;1.30;;;;;;;2.53;37.16;102196.84;6122484;29;20225;-73
2021/03/08 14:11:51;;;;;;;2.83;1.17;;;;;;;2.58;38.43;102195.59;6122494;29;20190;-73
2021/03/08 14:14:55;;;;;;;20.80;1.97;;;;;;;2.82;37.43;102201.56;6121102;29;20482;-72
2021/03/08 14:17:59;;;;;;;5.93;1.37;;;;;;;2.90;36.86;102207.13;6122351;29;20213;-72
2021/03/08 14:21:02;;;;;;;1.07;1.07;;;;;;;2.88;36.49;102203.69;6122189;29;20255;-73
2021/03/08 14:24:06;;;;;;;1.70;1.20;;;;;;;2.90;36.21;102196.34;6121676;29;20232;-72
2021/03/08 14:27:12;;;;;;;6.10;1.00;;;;;;;2.80;35.35;102190.06;6121848;29;20193;-72
2021/03/08 14:30:17;;;;;;;3.47;1.10;;;;;;;2.77;36.32;102196.56;6121839;29;20197;-73
2021/03/08 14:33:22;;;;;;;7.87;1.30;;;;;;;2.68;35.89;102191.09;6121950;29;20255;-72
2021/03/08 14:36:26;;;;;;;1.17;1.10;;;;;;;2.83;35.65;102184.38;6120437;29;20380;-72